createdAt,value
2018-07-04T00:01:40.119Z,23.25
2018-07-04T00:04:19.895Z,23.43
2018-07-04T00:07:00.052Z,23.45
2018-07-04T00:09:39.931Z,23.43
2018-07-04T00:12:19.941Z,23.45
2018-07-04T00:14:59.865Z,23.60
2018-07-04T00:17:40.160Z,23.65
2018-07-04T00:20:20.628Z,23.61
2018-07-04T00:23:00.603Z,23.53
2018-07-04T00:25:40.582Z,23.57
2018-07-04T00:28:20.768Z,23.41
2018-07-04T00:31:00.731Z,23.21
2018-07-04T00:33:40.666Z,23.38
2018-07-04T00:36:20.329Z,23.42
2018-07-04T00:39:00.273Z,23.26
2018-07-04T00:41:40.387Z,23.26
2018-07-04T00:44:20.240Z,23.24
2018-07-04T00:47:00.126Z,23.10
2018-07-04T00:49:40.395Z,23.23
2018-07-04T00:52:20.311Z,23.05
2018-07-04T00:55:00.364Z,23.04
2018-07-04T00:57:40.229Z,22.95
2018-07-04T01:00:19.775Z,22.74
2018-07-04T01:02:59.623Z,22.62
2018-07-04T01:05:39.566Z,22.57
2018-07-04T01:08:19.389Z,22.45
2018-07-04T01:10:59.275Z,22.45
2018-07-04T01:13:39.097Z,22.35
2018-07-04T01:16:19.060Z,22.49
2018-07-04T01:18:59.015Z,22.39
2018-07-04T01:21:38.938Z,22.14
2018-07-04T01:24:18.768Z,22.29
2018-07-04T01:26:58.562Z,22.23
2018-07-04T01:29:38.347Z,22.17
2018-07-04T01:32:18.252Z,22.11
2018-07-04T01:34:57.895Z,21.95
2018-07-04T01:37:37.639Z,21.87
2018-07-04T01:40:17.455Z,21.68
2018-07-04T01:42:57.480Z,21.94
2018-07-04T01:45:37.322Z,21.90
2018-07-04T01:48:17.180Z,21.86
2018-07-04T01:50:56.955Z,21.45
2018-07-04T01:53:36.754Z,21.44
2018-07-04T01:56:16.567Z,21.65
2018-07-04T01:58:56.307Z,21.78
2018-07-04T02:01:36.235Z,21.72
2018-07-04T02:04:16.114Z,21.67
2018-07-04T02:06:56.123Z,21.67
2018-07-04T02:09:35.999Z,21.53
2018-07-04T02:12:15.835Z,21.48
2018-07-04T02:14:55.705Z,21.61
2018-07-04T02:17:35.412Z,21.60
2018-07-04T02:20:15.323Z,21.53
2018-07-04T02:22:55.558Z,21.41
2018-07-04T02:25:35.383Z,21.31
2018-07-04T02:28:15.487Z,21.09
2018-07-04T02:30:55.585Z,21.05
2018-07-04T02:33:35.389Z,21.20
2018-07-04T02:36:15.217Z,21.06
2018-07-04T02:38:55.029Z,20.96
2018-07-04T02:41:34.975Z,20.93
2018-07-04T02:44:14.797Z,20.89
2018-07-04T02:46:54.620Z,20.87
2018-07-04T02:49:34.441Z,20.84
2018-07-04T02:52:14.398Z,20.71
2018-07-04T02:54:54.108Z,20.86
2018-07-04T02:57:34.063Z,20.87
2018-07-04T03:00:13.851Z,20.92
2018-07-04T03:02:53.873Z,21.05
2018-07-04T03:05:33.486Z,20.87
2018-07-04T03:08:13.476Z,21.01
2018-07-04T03:10:53.183Z,20.85
2018-07-04T03:13:33.692Z,20.84
2018-07-04T03:16:13.428Z,20.58
2018-07-04T03:18:53.296Z,20.86
2018-07-04T03:21:32.976Z,20.62
2018-07-04T03:24:12.872Z,20.53
2018-07-04T03:26:52.488Z,20.46
2018-07-04T03:29:32.279Z,20.44
2018-07-04T03:32:12.235Z,20.61
2018-07-04T03:34:52.040Z,20.44
2018-07-04T03:37:31.767Z,20.52
2018-07-04T03:40:11.725Z,20.49
2018-07-04T03:42:51.347Z,20.50
2018-07-04T03:45:31.419Z,20.43
2018-07-04T03:48:11.029Z,20.44
2018-07-04T03:50:51.011Z,20.59
2018-07-04T03:53:31.028Z,20.64
2018-07-04T03:56:10.871Z,20.66
2018-07-04T03:58:50.629Z,20.73
2018-07-04T04:01:30.576Z,20.81
2018-07-04T04:04:10.359Z,20.69
2018-07-04T04:06:50.479Z,20.75
2018-07-04T04:09:30.242Z,20.74
2018-07-04T04:12:10.127Z,20.87
2018-07-04T04:14:49.846Z,20.85
2018-07-04T04:17:29.732Z,20.78
2018-07-04T04:20:09.524Z,20.78
2018-07-04T04:22:49.591Z,21.08
2018-07-04T04:25:29.313Z,20.99
2018-07-04T04:28:09.085Z,21.18
2018-07-04T04:30:48.820Z,21.31
2018-07-04T04:33:28.777Z,21.38
2018-07-04T04:36:08.571Z,21.43
2018-07-04T04:38:48.498Z,21.42
2018-07-04T04:41:28.444Z,21.45
2018-07-04T04:44:08.375Z,21.52
2018-07-04T04:46:48.010Z,21.59
2018-07-04T04:49:27.799Z,21.86
2018-07-04T04:52:07.544Z,21.84
2018-07-04T04:54:47.553Z,21.86
2018-07-04T04:57:27.268Z,21.89
2018-07-04T05:00:07.148Z,21.85
2018-07-04T05:02:47.050Z,22.02
2018-07-04T05:05:27.051Z,21.63
2018-07-04T05:08:06.712Z,21.86
2018-07-04T05:10:46.390Z,22.08
2018-07-04T05:13:26.283Z,22.14
2018-07-04T05:16:07.282Z,22.27
2018-07-04T05:18:47.142Z,22.18
2018-07-04T05:21:27.159Z,22.00
2018-07-04T05:24:07.341Z,22.38
2018-07-04T05:26:47.181Z,22.48
2018-07-04T05:29:27.008Z,22.60
2018-07-04T05:32:07.167Z,22.11
2018-07-04T05:34:46.836Z,22.24
2018-07-04T05:37:26.464Z,22.40
2018-07-04T05:40:06.516Z,22.26
2018-07-04T05:42:46.355Z,22.69
2018-07-04T05:45:25.992Z,22.50
2018-07-04T05:48:05.984Z,22.76
2018-07-04T05:50:45.752Z,22.95
2018-07-04T05:53:25.591Z,22.98
2018-07-04T05:56:05.296Z,23.59
2018-07-04T05:58:45.230Z,23.76
2018-07-04T06:01:24.850Z,23.83
2018-07-04T06:04:04.796Z,23.96
2018-07-04T06:06:44.571Z,23.58
2018-07-04T06:09:24.267Z,23.22
2018-07-04T06:12:03.999Z,23.35
2018-07-04T06:14:45.242Z,23.99
2018-07-04T06:17:25.624Z,24.50
2018-07-04T06:20:05.699Z,25.15
2018-07-04T06:22:46.040Z,25.59
2018-07-04T06:25:26.634Z,25.98
2018-07-04T06:28:06.960Z,26.40
2018-07-04T06:30:47.435Z,26.77
2018-07-04T06:33:28.929Z,26.80
2018-07-04T06:36:10.078Z,26.38
2018-07-04T06:38:37.947Z,26.70
2018-07-04T06:41:06.967Z,26.80
2018-07-04T06:43:36.380Z,26.93
2018-07-04T06:46:05.545Z,26.99
2018-07-04T06:48:37.511Z,26.94
2018-07-04T06:51:06.692Z,26.94
2018-07-04T06:53:34.770Z,27.73
2018-07-04T06:56:02.243Z,28.16
2018-07-04T06:58:29.520Z,28.66
2018-07-04T07:00:58.030Z,29.62
2018-07-04T07:03:38.606Z,29.99
2018-07-04T07:06:18.409Z,30.14
2018-07-04T07:08:58.608Z,30.62
2018-07-04T07:11:38.557Z,30.39
2018-07-04T07:14:19.345Z,30.73
2018-07-04T07:16:59.162Z,31.66
2018-07-04T07:19:39.344Z,31.95
2018-07-04T07:22:19.059Z,32.55
2018-07-04T07:24:58.868Z,32.99
2018-07-04T07:27:38.882Z,33.41
2018-07-04T07:30:18.944Z,33.75
2018-07-04T07:32:58.789Z,33.96
2018-07-04T07:35:38.819Z,34.38
2018-07-04T07:38:18.483Z,34.62
2018-07-04T07:40:58.240Z,34.71
2018-07-04T07:43:38.053Z,34.90
2018-07-04T07:46:17.764Z,34.54
2018-07-04T07:48:57.627Z,35.12
2018-07-04T07:51:37.403Z,34.91
2018-07-04T07:54:17.322Z,35.45
2018-07-04T07:56:57.112Z,35.73
2018-07-04T07:59:36.960Z,35.24
2018-07-04T08:02:16.884Z,35.19
2018-07-04T08:04:57.031Z,34.87
2018-07-04T08:07:36.834Z,34.50
2018-07-04T08:10:16.568Z,35.03
2018-07-04T08:12:56.625Z,35.53
2018-07-04T08:15:36.557Z,35.73
2018-07-04T08:18:16.268Z,35.28
2018-07-04T08:20:56.103Z,34.10
2018-07-04T08:23:36.068Z,33.72
2018-07-04T08:26:15.823Z,34.31
2018-07-04T08:28:55.775Z,35.07
2018-07-04T08:31:35.583Z,35.95
2018-07-04T08:34:15.572Z,34.32
2018-07-04T08:36:55.319Z,34.85
2018-07-04T08:39:35.185Z,35.27
2018-07-04T08:42:14.989Z,35.83
2018-07-04T08:44:55.000Z,36.49
2018-07-04T08:47:34.707Z,37.32
2018-07-04T08:50:14.470Z,35.26
2018-07-04T08:52:54.186Z,35.57
2018-07-04T08:55:34.052Z,35.99
2018-07-04T08:58:13.829Z,36.70
2018-07-04T09:00:53.966Z,36.46
2018-07-04T09:03:33.808Z,37.05
2018-07-04T09:06:13.675Z,36.89
2018-07-04T09:08:53.415Z,38.03
2018-07-04T09:11:33.113Z,39.05
2018-07-04T09:14:12.887Z,39.03
2018-07-04T09:16:52.732Z,38.43
2018-07-04T09:19:32.474Z,39.09
2018-07-04T09:22:14.168Z,38.13
2018-07-04T09:24:53.879Z,37.82
2018-07-04T09:27:33.741Z,38.05
2018-07-04T09:30:13.512Z,37.31
2018-07-04T09:32:53.656Z,36.67
2018-07-04T09:35:33.515Z,36.05
2018-07-04T09:38:13.295Z,35.45
2018-07-04T09:40:53.047Z,34.69
2018-07-04T09:43:33.164Z,34.18
2018-07-04T09:46:12.949Z,33.37
2018-07-04T09:48:52.684Z,31.78
2018-07-04T09:51:32.808Z,31.66
2018-07-04T09:54:12.560Z,30.62
2018-07-04T09:56:52.404Z,29.05
2018-07-04T09:59:32.248Z,25.70
2018-07-04T10:02:11.835Z,23.56
2018-07-04T10:04:52.263Z,22.78
2018-07-04T10:10:23.195Z,23.06
2018-07-04T10:13:02.952Z,23.04
2018-07-04T10:15:43.223Z,22.44
2018-07-04T10:18:23.072Z,22.71
2018-07-04T10:21:03.300Z,22.75
2018-07-04T10:23:43.631Z,23.48
2018-07-04T10:26:23.808Z,23.77
2018-07-04T10:29:03.595Z,23.76
2018-07-04T10:31:43.521Z,23.15
2018-07-04T10:34:23.672Z,23.18
2018-07-04T10:37:03.668Z,22.49
2018-07-04T10:39:43.990Z,22.22
2018-07-04T10:42:24.246Z,21.35
2018-07-04T10:45:03.900Z,21.12
2018-07-04T10:47:44.023Z,20.99
2018-07-04T10:50:23.719Z,21.08
2018-07-04T10:53:03.592Z,20.72
2018-07-04T10:55:43.173Z,21.39
2018-07-04T10:58:23.028Z,21.80
2018-07-04T11:01:02.873Z,22.00
2018-07-04T11:03:42.763Z,22.10
2018-07-04T11:06:22.420Z,22.37
2018-07-04T11:09:02.748Z,22.54
2018-07-04T11:11:42.554Z,22.73
2018-07-04T11:14:22.289Z,22.95
2018-07-04T11:17:02.280Z,23.12
2018-07-04T11:19:42.084Z,23.23
2018-07-04T11:22:21.779Z,23.46
2018-07-04T11:25:01.991Z,23.71
2018-07-04T11:27:41.640Z,23.90
2018-07-04T11:30:21.805Z,24.14
2018-07-04T11:33:01.564Z,23.94
2018-07-04T11:35:41.298Z,24.17
2018-07-04T11:38:21.048Z,24.34
2018-07-04T11:41:00.983Z,24.73
2018-07-04T11:43:40.843Z,24.82
2018-07-04T11:46:08.427Z,25.15
2018-07-04T11:48:35.738Z,25.47
2018-07-04T11:51:03.023Z,25.95
2018-07-04T11:53:30.539Z,26.29
2018-07-04T11:55:57.921Z,26.32
2018-07-04T11:58:25.235Z,25.96
2018-07-04T12:00:52.580Z,26.90
2018-07-04T12:03:22.809Z,27.53
2018-07-04T12:06:02.836Z,28.35
2018-07-04T12:08:30.110Z,29.03
2018-07-04T12:10:58.127Z,29.55
2018-07-04T12:13:26.987Z,30.51
2018-07-04T12:15:54.327Z,32.07
2018-07-04T12:18:21.591Z,31.97
2018-07-04T12:20:49.125Z,32.46
2018-07-04T12:23:16.698Z,32.28
2018-07-04T12:25:45.078Z,31.06
2018-07-04T12:28:13.113Z,32.64
2018-07-04T12:30:40.403Z,34.07
2018-07-04T12:33:07.706Z,34.92
2018-07-04T12:35:35.174Z,35.44
2018-07-04T12:38:02.464Z,35.91
2018-07-04T12:40:29.809Z,35.18
2018-07-04T12:42:57.159Z,36.28
2018-07-04T12:45:24.460Z,37.61
2018-07-04T12:47:51.826Z,36.17
2018-07-04T12:50:31.084Z,35.49
2018-07-04T12:52:59.052Z,36.72
2018-07-04T12:55:40.517Z,38.29
2018-07-04T12:58:21.053Z,39.71
2018-07-04T13:01:01.106Z,38.63
2018-07-04T13:03:40.972Z,40.19
2018-07-04T13:06:21.122Z,40.03
2018-07-04T13:09:00.972Z,40.42
2018-07-04T13:11:41.316Z,40.32
2018-07-04T13:14:21.031Z,39.83
2018-07-04T13:17:01.005Z,39.64
2018-07-04T13:19:40.934Z,39.49
2018-07-04T13:22:20.800Z,39.38
2018-07-04T13:25:00.542Z,39.45
2018-07-04T13:27:41.226Z,38.42
2018-07-04T13:30:21.100Z,39.65
2018-07-04T13:33:01.126Z,41.14
2018-07-04T13:35:41.039Z,42.08
2018-07-04T13:38:20.744Z,42.18
2018-07-04T13:41:00.569Z,42.95
2018-07-04T13:43:40.676Z,43.21
2018-07-04T13:46:20.456Z,41.17
2018-07-04T13:49:00.512Z,39.29
2018-07-04T13:51:40.312Z,37.64
2018-07-04T13:54:20.429Z,36.47
2018-07-04T13:57:00.099Z,35.41
2018-07-04T13:59:40.464Z,34.68
2018-07-04T14:02:20.292Z,33.28
2018-07-04T14:05:00.392Z,33.28
2018-07-04T14:07:40.235Z,32.38
2018-07-04T14:10:20.089Z,32.12
2018-07-04T14:12:59.885Z,31.21
2018-07-04T14:15:40.025Z,30.43
2018-07-04T14:18:19.939Z,29.48
2018-07-04T14:20:59.902Z,29.49
2018-07-04T14:23:43.105Z,29.14
2018-07-04T14:26:23.039Z,27.08
2018-07-04T14:29:03.032Z,24.56
2018-07-04T14:31:42.944Z,22.58
2018-07-04T14:34:22.602Z,22.57
2018-07-04T14:37:02.785Z,22.89
2018-07-04T14:39:42.536Z,23.08
2018-07-04T14:42:22.390Z,23.42
2018-07-04T14:45:02.138Z,23.03
2018-07-04T14:47:42.040Z,23.46
2018-07-04T14:50:21.899Z,24.02
2018-07-04T14:53:01.971Z,24.39
2018-07-04T14:55:42.692Z,24.73
2018-07-04T14:58:22.899Z,25.10
2018-07-04T15:01:02.494Z,25.47
2018-07-04T15:03:42.200Z,25.45
2018-07-04T15:06:21.841Z,25.06
2018-07-04T15:09:01.993Z,24.03
2018-07-04T15:11:41.921Z,23.39
2018-07-04T15:14:21.974Z,23.36
2018-07-04T15:17:01.883Z,23.52
2018-07-04T15:19:41.667Z,23.34
2018-07-04T15:22:21.560Z,23.55
2018-07-04T15:25:02.082Z,23.61
2018-07-04T15:27:41.757Z,24.07
2018-07-04T15:30:21.840Z,24.04
2018-07-04T15:33:02.506Z,24.29
2018-07-04T15:35:42.623Z,24.87
2018-07-04T15:38:22.723Z,25.02
2018-07-04T15:41:02.626Z,25.29
2018-07-04T15:43:42.459Z,25.05
2018-07-04T15:46:22.291Z,25.33
2018-07-04T15:49:01.968Z,25.66
2018-07-04T15:51:42.237Z,25.37
2018-07-04T15:54:22.028Z,25.59
2018-07-04T15:57:01.735Z,25.85
2018-07-04T15:59:41.531Z,25.94
2018-07-04T16:02:21.405Z,26.04
2018-07-04T16:05:01.260Z,26.07
2018-07-04T16:07:41.292Z,26.07
2018-07-04T16:10:21.040Z,26.04
2018-07-04T16:13:00.884Z,25.97
2018-07-04T16:15:40.598Z,25.93
2018-07-04T16:18:20.417Z,25.94
2018-07-04T16:21:00.108Z,25.82
2018-07-04T16:23:40.186Z,25.76
2018-07-04T16:26:20.059Z,25.72
2018-07-04T16:28:59.860Z,25.79
2018-07-04T16:31:39.677Z,25.80
2018-07-04T16:34:19.770Z,25.62
2018-07-04T16:36:59.900Z,25.55
2018-07-04T16:39:40.296Z,25.57
2018-07-04T16:42:20.450Z,25.69
2018-07-04T16:45:00.230Z,25.73
2018-07-04T16:47:40.099Z,25.97
2018-07-04T16:50:20.427Z,25.92
2018-07-04T16:53:00.344Z,26.34
2018-07-04T16:55:40.479Z,26.50
2018-07-04T16:58:20.421Z,26.57
2018-07-04T17:01:00.524Z,26.72
2018-07-04T17:03:40.290Z,26.19
2018-07-04T17:06:20.599Z,26.29
2018-07-04T17:09:00.323Z,26.25
2018-07-04T17:11:40.409Z,26.18
2018-07-04T17:14:20.163Z,26.24
2018-07-04T17:17:00.253Z,26.05
2018-07-04T17:19:40.363Z,25.95
2018-07-04T17:22:20.315Z,26.06
2018-07-04T17:25:00.260Z,25.95
2018-07-04T17:27:40.600Z,25.95
2018-07-04T17:30:20.674Z,25.81
2018-07-04T17:33:01.403Z,25.80
2018-07-04T17:35:41.411Z,25.85
2018-07-04T17:38:21.426Z,25.78
2018-07-04T17:41:01.390Z,25.85
2018-07-04T17:43:41.631Z,25.90
2018-07-04T17:46:21.401Z,25.93
2018-07-04T17:49:01.843Z,25.92
2018-07-04T17:51:41.584Z,25.98
2018-07-04T17:54:21.340Z,26.04
2018-07-04T17:57:01.428Z,26.10
2018-07-04T17:59:41.396Z,26.16
2018-07-04T18:02:21.257Z,26.22
2018-07-04T18:05:01.245Z,26.25
2018-07-04T18:07:41.101Z,26.21
2018-07-04T18:10:20.926Z,26.01
2018-07-04T18:13:00.713Z,26.00
2018-07-04T18:15:40.575Z,25.93
2018-07-04T18:18:20.560Z,25.82
2018-07-04T18:21:04.664Z,25.65
2018-07-04T18:23:44.545Z,25.65
2018-07-04T18:26:24.463Z,25.54
2018-07-04T18:29:04.133Z,25.32
2018-07-04T18:31:44.332Z,25.22
2018-07-04T18:34:25.035Z,25.08
2018-07-04T18:37:05.236Z,25.01
2018-07-04T18:39:45.079Z,24.83
2018-07-04T18:42:25.109Z,24.74
2018-07-04T18:45:05.064Z,24.90
2018-07-04T18:47:45.145Z,24.90
2018-07-04T18:50:24.655Z,24.88
2018-07-04T18:53:04.475Z,24.83
2018-07-04T18:55:44.122Z,24.75
2018-07-04T18:58:24.039Z,24.71
2018-07-04T19:01:04.499Z,24.63
2018-07-04T19:03:44.649Z,24.53
2018-07-04T19:06:24.494Z,24.58
2018-07-04T19:09:05.592Z,24.42
2018-07-04T19:11:45.487Z,24.39
2018-07-04T19:14:25.167Z,24.48
2018-07-04T19:17:04.752Z,24.56
2018-07-04T19:19:44.847Z,24.46
2018-07-04T19:22:24.609Z,24.25
2018-07-04T19:25:04.650Z,24.18
2018-07-04T19:27:44.435Z,24.07
2018-07-04T19:30:24.854Z,23.91
2018-07-04T19:33:04.641Z,23.82
2018-07-04T19:35:44.355Z,23.66
2018-07-04T19:38:24.220Z,23.56
2018-07-04T19:41:08.040Z,23.73
2018-07-04T19:43:47.997Z,23.72
2018-07-04T19:46:27.945Z,23.57
2018-07-04T19:49:07.599Z,23.51
2018-07-04T19:51:48.674Z,23.41
2018-07-04T19:54:28.509Z,23.26
2018-07-04T19:57:08.694Z,23.09
2018-07-04T19:59:48.408Z,22.98
2018-07-04T20:02:28.297Z,23.09
2018-07-04T20:05:08.041Z,23.08
2018-07-04T20:07:47.968Z,23.14
2018-07-04T20:10:27.679Z,22.95
2018-07-04T20:13:07.543Z,22.80
2018-07-04T20:15:47.260Z,22.78
2018-07-04T20:18:27.176Z,22.67
2018-07-04T20:21:06.967Z,22.69
2018-07-04T20:23:46.864Z,22.81
2018-07-04T20:26:26.499Z,22.66
2018-07-04T20:29:06.434Z,22.66
2018-07-04T20:31:46.068Z,22.24
2018-07-04T20:34:26.211Z,22.15
2018-07-04T20:37:05.875Z,22.26
2018-07-04T20:39:46.212Z,22.27
2018-07-04T20:42:26.111Z,22.53
2018-07-04T20:45:05.904Z,22.69
2018-07-04T20:47:45.516Z,22.57
2018-07-04T20:50:25.383Z,22.54
2018-07-04T20:53:05.362Z,22.57
2018-07-04T20:55:46.233Z,22.54
2018-07-04T20:58:26.195Z,22.52
2018-07-04T21:01:06.937Z,22.44
2018-07-04T21:03:47.592Z,22.40
2018-07-04T21:06:27.316Z,22.30
2018-07-04T21:09:07.100Z,22.36
2018-07-04T21:11:46.839Z,22.34
2018-07-04T21:14:26.712Z,22.18
2018-07-04T21:17:06.447Z,22.24
2018-07-04T21:19:46.359Z,22.05
2018-07-04T21:22:26.349Z,22.01
2018-07-04T21:25:06.716Z,22.07
2018-07-04T21:27:46.879Z,21.97
2018-07-04T21:30:26.561Z,22.02
2018-07-04T21:33:06.862Z,21.77
2018-07-04T21:35:46.763Z,21.59
2018-07-04T21:38:26.744Z,21.23
2018-07-04T21:41:06.530Z,21.61
2018-07-04T21:43:46.303Z,21.84
2018-07-04T21:46:25.969Z,21.77
2018-07-04T21:49:05.871Z,21.76
2018-07-04T21:51:45.648Z,21.55
2018-07-04T21:54:26.043Z,21.51
2018-07-04T21:57:05.696Z,21.34
2018-07-04T21:59:45.756Z,21.40
2018-07-04T22:02:25.903Z,21.51
2018-07-04T22:05:05.876Z,21.56
2018-07-04T22:07:46.417Z,21.56
2018-07-04T22:10:26.263Z,21.53
2018-07-04T22:13:06.113Z,21.50
2018-07-04T22:15:45.836Z,21.59
2018-07-04T22:18:25.358Z,21.69
2018-07-04T22:21:05.328Z,21.67
2018-07-04T22:23:45.501Z,21.61
2018-07-04T22:26:25.430Z,21.65
2018-07-04T22:29:05.311Z,21.63
2018-07-04T22:31:44.943Z,21.65
2018-07-04T22:34:25.499Z,21.61
2018-07-04T22:37:05.552Z,21.56
2018-07-04T22:39:45.304Z,21.50
2018-07-04T22:42:25.312Z,21.47
2018-07-04T22:45:05.714Z,21.46
2018-07-04T22:47:45.634Z,21.48
2018-07-04T22:50:25.367Z,21.47
2018-07-04T22:53:05.269Z,21.33
2018-07-04T22:55:45.020Z,21.00
2018-07-04T22:58:24.635Z,21.21
2018-07-04T23:01:04.355Z,21.22
2018-07-04T23:03:44.215Z,21.16
2018-07-04T23:06:24.000Z,21.18
2018-07-04T23:09:05.024Z,21.08
2018-07-04T23:11:44.824Z,21.09
2018-07-04T23:14:24.640Z,21.20
2018-07-04T23:17:04.251Z,21.06
2018-07-04T23:19:44.307Z,20.98
2018-07-04T23:22:24.092Z,20.78
2018-07-04T23:25:04.752Z,20.44
2018-07-04T23:27:44.607Z,20.42
2018-07-04T23:30:24.208Z,20.81
2018-07-04T23:33:04.619Z,21.02
2018-07-04T23:35:44.743Z,21.02
2018-07-04T23:38:24.607Z,20.88
2018-07-04T23:41:04.496Z,20.88
2018-07-04T23:43:44.700Z,20.73
2018-07-04T23:46:24.504Z,20.46
2018-07-04T23:49:04.296Z,20.36
2018-07-04T23:51:44.343Z,20.39
2018-07-04T23:54:24.088Z,20.41
2018-07-04T23:57:03.931Z,20.51
2018-07-04T23:59:43.660Z,20.53
